Petersburg, VA (23801)

12:08 PM EST on February 09, 2016 (GMT -0500)
Lakeshore Estates South Prince George | | Change Station
CLOSE
Current Station
Personal Weather Station
Location: Petersburg, VA
Elevation: 142 ft
Nearby Weather Stations

Elev 142 ft 37.18 °N, 77.34 °W | Updated 23 seconds ago

Mostly Cloudy
Mostly Cloudy
45.3 °F
Feels Like 45 °F
N
0.0
Wind Variable Wind from West
Gusts 0.0 mph

Today
High -- | Low -- °F
--% Chance of Precip.
Yesterday
High -- | Low -- °F
Precip. -- in
Pressure 29.60 in
Visibility 10.0 miles
Clouds Mostly Cloudy 3700 ft
Overcast 4300 ft
Windchill 45 °F
Dew Point 27 °F
Humidity 48%
Rainfall 0.00 in
Snow Depth Not available.
7:05 AM 5:42 PM
New Moon, 2% visible
METAR KPTB 091655Z AUTO 28007KT 10SM BKN037 OVC043 07/M03 A2960 RMK AO2 T00731035
Pressure 29.60 in
Visibility 10.0 miles
Clouds Mostly Cloudy 3700 ft
Overcast 4300 ft
Windchill 45 °F
Dew Point 27 °F
Humidity 48%
Rainfall 0.00 in
Snow Depth Not available.
7:05 AM 5:42 PM
New Moon, 2% visible
METAR KPTB 091655Z AUTO 28007KT 10SM BKN037 OVC043 07/M03 A2960 RMK AO2 T00731035

10-Day Weather Forecast

Almanac

Astronomy

Feb. 09, 2016 Rise Set
Actual Time
Civil Twilight
Nautical Twilight
Astronomical Twilight
Moon
Length of Visible Light
Length of Day
Tomorrow will be .
, % of the Moon is Illuminated

Today's Extremes

State Highs State Lows

Community

WunderPhotos

Upload Photos

1,891,631 photos uploaded!

WunderBlog® & News

Nearby

Air Quality

  Air Quality AQ Index Pollutant
Not available.

Snow Depth

Station Depth Elevation

Earthquake Activity

City Distance Mag. Time & Date
Minimum magnitude displayed is 2.5.

Coastal Water Temperatures

Place Temperature

Stations

Nearby Weather Stations

Station Location Temp. Windchill Dew Point Humidity Wind Precip. Elev Updated Type
                   

Watches & Warnings

There are currently no watches in effect.